Time;durP1;ratioP1;P1;durP2;ratioP2;P2;SDS_P1;SDS_P2;PMS_P1;PMS_P2;Temp;Humidity;BMP_temperature;BMP_pressure;BME280_temperature;BME280_humidity;BME280_pressure;Samples;Min_cycle;Max_cycle;Signal;HPM_P1;HPM_P2
2023/03/19 00:00:43;;;;;;;1.50;1.40;;;;;;;;;;5040159;28;20233;-84
2023/03/19 00:03:10;;;;;;;1.35;1.25;;;;;;;;;;5040966;28;20258;-84
2023/03/19 00:05:38;;;;;;;1.40;1.30;;;;;;;;;;5040694;28;20290;-83
2023/03/19 00:08:06;;;;;;;1.60;1.50;;;;;;;;;;5040749;28;20230;-83
2023/03/19 00:10:34;;;;;;;1.70;1.60;;;;;;;;;;5040558;28;20202;-84
2023/03/19 00:13:03;;;;;;;1.83;1.65;;;;;;;;;;5039768;28;20230;-84
2023/03/19 00:15:31;;;;;;;1.35;1.25;;;;;;;;;;5040564;28;20301;-85
2023/03/19 00:17:58;;;;;;;1.65;1.55;;;;;;;;;;5040394;28;20689;-84
2023/03/19 00:20:26;;;;;;;2.13;1.92;;;;;;;;;;5039649;28;20640;-84
2023/03/19 00:22:53;;;;;;;1.83;1.67;;;;;;;;;;5040034;28;20253;-84
2023/03/19 00:25:21;;;;;;;1.65;1.55;;;;;;;;;;5039104;28;20254;-83
2023/03/19 00:27:48;;;;;;;1.83;1.73;;;;;;;;;;5039751;28;20213;-84
2023/03/19 00:30:17;;;;;;;1.63;1.52;;;;;;;;;;5039245;28;20285;-85
2023/03/19 00:32:45;;;;;;;2.15;2.05;;;;;;;;;;5039660;28;20198;-85
2023/03/19 00:35:12;;;;;;;2.10;2.00;;;;;;;;;;5040175;28;20654;-84
2023/03/19 00:37:41;;;;;;;2.15;2.05;;;;;;;;;;5039476;28;20750;-84
2023/03/19 00:40:10;;;;;;;1.95;1.73;;;;;;;;;;5041227;28;20241;-83
2023/03/19 00:42:38;;;;;;;1.80;1.70;;;;;;;;;;5040198;28;20309;-85
2023/03/19 00:45:07;;;;;;;1.73;1.63;;;;;;;;;;5039780;28;20285;-84
2023/03/19 00:47:36;;;;;;;2.33;2.13;;;;;;;;;;5040187;28;20209;-83
2023/03/19 00:50:04;;;;;;;3.45;2.50;;;;;;;;;;5040259;28;20229;-84
2023/03/19 00:52:31;;;;;;;1.98;1.85;;;;;;;;;;5039540;28;20209;-85
2023/03/19 00:54:59;;;;;;;2.60;2.40;;;;;;;;;;5039068;28;20218;-83
2023/03/19 00:57:26;;;;;;;2.83;2.50;;;;;;;;;;5040349;28;20248;-84
2023/03/19 00:59:54;;;;;;;1.95;1.85;;;;;;;;;;5040228;28;20213;-84
2023/03/19 01:02:21;;;;;;;2.00;1.90;;;;;;;;;;5040420;28;20210;-83
2023/03/19 01:04:50;;;;;;;2.50;1.90;;;;;;;;;;5040055;28;20249;-83
2023/03/19 01:07:18;;;;;;;2.25;1.70;;;;;;;;;;5039871;28;20221;-84
2023/03/19 01:09:45;;;;;;;1.95;1.75;;;;;;;;;;5039687;28;20270;-84
2023/03/19 01:12:13;;;;;;;2.15;2.05;;;;;;;;;;5039232;28;20241;-84
2023/03/19 01:14:40;;;;;;;1.45;1.33;;;;;;;;;;5038713;28;20218;-85
2023/03/19 01:17:08;;;;;;;1.70;1.60;;;;;;;;;;5039473;28;20230;-84
2023/03/19 01:19:35;;;;;;;1.13;1.13;;;;;;;;;;5039019;28;20233;-84
2023/03/19 01:22:04;;;;;;;1.70;1.60;;;;;;;;;;5039142;28;20205;-84
2023/03/19 01:24:32;;;;;;;1.00;1.00;;;;;;;;;;5038939;28;20234;-84
2023/03/19 01:27:00;;;;;;;1.10;1.10;;;;;;;;;;5039502;28;20221;-84
2023/03/19 01:29:27;;;;;;;1.30;1.20;;;;;;;;;;5038962;28;20206;-84
2023/03/19 01:31:54;;;;;;;1.23;1.13;;;;;;;;;;5054948;28;20293;-85
2023/03/19 01:34:23;;;;;;;1.30;1.20;;;;;;;;;;5058856;28;20261;-85
2023/03/19 01:36:51;;;;;;;1.42;1.30;;;;;;;;;;5058379;28;20205;-84
2023/03/19 01:39:20;;;;;;;1.42;1.33;;;;;;;;;;5058391;28;20234;-84
2023/03/19 01:41:47;;;;;;;1.45;1.15;;;;;;;;;;5057493;28;20585;-84
2023/03/19 01:44:30;;;;;;;1.45;1.35;;;;;;;;;;5059069;28;20687;-84
2023/03/19 01:46:58;;;;;;;1.60;1.50;;;;;;;;;;5067307;22;20588;-78
2023/03/19 01:49:26;;;;;;;1.95;1.80;;;;;;;;;;5054218;28;20202;-79
2023/03/19 01:51:54;;;;;;;2.75;1.98;;;;;;;;;;5059575;28;20206;-79
2023/03/19 01:54:25;;;;;;;2.28;2.08;;;;;;;;;;5059950;28;20232;-78
2023/03/19 01:56:55;;;;;;;2.42;2.22;;;;;;;;;;5057519;28;20244;-80
2023/03/19 01:59:27;;;;;;;1.90;1.80;;;;;;;;;;5075990;22;21113;-84
2023/03/19 02:01:58;;;;;;;2.38;2.17;;;;;;;;;;5048391;28;20208;-84
2023/03/19 02:04:27;;;;;;;2.35;2.15;;;;;;;;;;5036290;28;20218;-84
2023/03/19 02:06:56;;;;;;;2.65;2.45;;;;;;;;;;5035974;28;20218;-84
2023/03/19 02:09:26;;;;;;;2.95;2.75;;;;;;;;;;5035706;28;20292;-86
2023/03/19 02:11:54;;;;;;;2.75;2.55;;;;;;;;;;5036674;28;20606;-86
2023/03/19 02:14:22;;;;;;;2.63;2.38;;;;;;;;;;5036601;28;20602;-86
2023/03/19 02:16:50;;;;;;;3.22;2.67;;;;;;;;;;5037567;28;20232;-86
2023/03/19 02:19:22;;;;;;;2.67;2.47;;;;;;;;;;5036332;28;20245;-86
2023/03/19 02:21:50;;;;;;;6.00;3.42;;;;;;;;;;5036804;28;20613;-87
2023/03/19 02:24:21;;;;;;;2.30;2.10;;;;;;;;;;5036297;28;20262;-86
2023/03/19 02:26:51;;;;;;;3.15;2.85;;;;;;;;;;5037177;28;20322;-86
2023/03/19 02:29:18;;;;;;;2.90;2.60;;;;;;;;;;5035672;28;20210;-85
2023/03/19 02:31:46;;;;;;;2.95;2.55;;;;;;;;;;5052003;28;20233;-86
2023/03/19 02:34:35;;;;;;;3.10;2.78;;;;;;;;;;5057136;28;20206;-86
2023/03/19 02:37:08;;;;;;;2.78;2.58;;;;;;;;;;5057948;28;20225;-86
2023/03/19 02:39:42;;;;;;;2.30;2.10;;;;;;;;;;5055214;28;20206;-85
2023/03/19 02:42:12;;;;;;;2.35;2.10;;;;;;;;;;5057317;28;20186;-86
2023/03/19 02:44:40;;;;;;;2.22;2.03;;;;;;;;;;5056360;28;20257;-86
2023/03/19 02:47:07;;;;;;;2.80;2.47;;;;;;;;;;5057432;28;20252;-85
2023/03/19 02:49:35;;;;;;;2.17;2.00;;;;;;;;;;5057503;28;20300;-84
2023/03/19 02:52:03;;;;;;;3.38;2.50;;;;;;;;;;5057657;28;20224;-85
2023/03/19 02:54:30;;;;;;;2.80;2.58;;;;;;;;;;5056532;28;20276;-84
2023/03/19 02:56:58;;;;;;;2.38;2.17;;;;;;;;;;5058071;28;20760;-84
2023/03/19 02:59:27;;;;;;;2.00;1.90;;;;;;;;;;5056876;28;20249;-84
2023/03/19 03:01:54;;;;;;;2.10;2.00;;;;;;;;;;5057676;28;20297;-84
2023/03/19 03:04:22;;;;;;;2.33;2.13;;;;;;;;;;5056019;28;20257;-85
2023/03/19 03:06:49;;;;;;;2.60;2.40;;;;;;;;;;5056852;28;20281;-86
2023/03/19 03:09:17;;;;;;;2.83;2.63;;;;;;;;;;5056356;28;20674;-85
2023/03/19 03:11:44;;;;;;;2.22;2.10;;;;;;;;;;5057340;28;20745;-86
2023/03/19 03:14:12;;;;;;;3.22;2.50;;;;;;;;;;5060024;28;20693;-85
2023/03/19 03:16:41;;;;;;;2.50;2.30;;;;;;;;;;5060246;28;20277;-86
2023/03/19 03:19:08;;;;;;;3.67;2.45;;;;;;;;;;5060200;28;20230;-86
2023/03/19 03:21:36;;;;;;;3.00;2.80;;;;;;;;;;5060556;28;20197;-85
2023/03/19 03:24:04;;;;;;;2.40;2.20;;;;;;;;;;5061692;28;20724;-85
2023/03/19 03:26:33;;;;;;;2.47;2.28;;;;;;;;;;5061794;28;20304;-86
2023/03/19 03:29:01;;;;;;;3.38;2.50;;;;;;;;;;5060720;28;20205;-85
2023/03/19 03:31:28;;;;;;;3.75;2.50;;;;;;;;;;5060426;28;20583;-86
2023/03/19 03:33:57;;;;;;;2.90;2.70;;;;;;;;;;5060823;28;20201;-86
2023/03/19 03:36:26;;;;;;;2.38;2.15;;;;;;;;;;5061366;28;20305;-86
2023/03/19 03:38:54;;;;;;;2.67;2.00;;;;;;;;;;5060980;28;20212;-86
2023/03/19 03:41:21;;;;;;;2.47;2.33;;;;;;;;;;5062581;28;20668;-85
2023/03/19 03:43:49;;;;;;;2.53;2.33;;;;;;;;;;5062306;28;20241;-85
2023/03/19 03:46:16;;;;;;;2.63;2.42;;;;;;;;;;5061377;28;20225;-84
2023/03/19 03:48:44;;;;;;;2.10;1.90;;;;;;;;;;5060585;28;20228;-85
2023/03/19 03:51:13;;;;;;;1.90;1.80;;;;;;;;;;5061260;28;20240;-86
2023/03/19 03:53:41;;;;;;;2.35;2.15;;;;;;;;;;5061181;28;20205;-83
2023/03/19 03:56:09;;;;;;;2.20;2.10;;;;;;;;;;5061064;28;20300;-85
2023/03/19 03:58:36;;;;;;;2.65;2.35;;;;;;;;;;5061974;28;20523;-85
2023/03/19 04:01:04;;;;;;;2.53;2.30;;;;;;;;;;5060981;28;20213;-84
2023/03/19 04:03:32;;;;;;;3.47;2.38;;;;;;;;;;5060819;28;20208;-85
2023/03/19 04:06:00;;;;;;;3.10;2.90;;;;;;;;;;5061494;28;20313;-83
2023/03/19 04:08:29;;;;;;;3.42;3.13;;;;;;;;;;5060681;28;20284;-82
2023/03/19 04:10:57;;;;;;;2.88;2.05;;;;;;;;;;5060910;28;20296;-86
2023/03/19 04:13:24;;;;;;;2.55;1.92;;;;;;;;;;5061047;28;20198;-85
2023/03/19 04:15:53;;;;;;;2.55;1.67;;;;;;;;;;5060377;28;20583;-85
2023/03/19 04:18:20;;;;;;;2.67;1.40;;;;;;;;;;5059749;28;20206;-86
2023/03/19 04:20:48;;;;;;;1.27;1.23;;;;;;;;;;5060075;28;20207;-84
2023/03/19 04:23:15;;;;;;;3.58;2.42;;;;;;;;;;5059575;28;20789;-83
2023/03/19 04:25:45;;;;;;;3.50;2.20;;;;;;;;;;5059352;28;20253;-86
2023/03/19 04:28:13;;;;;;;2.05;1.70;;;;;;;;;;5060809;28;20233;-84
2023/03/19 04:30:42;;;;;;;2.75;2.50;;;;;;;;;;5059570;28;20646;-84
2023/03/19 04:33:09;;;;;;;2.75;2.55;;;;;;;;;;5060010;28;20650;-84
2023/03/19 04:35:37;;;;;;;2.50;2.30;;;;;;;;;;5058272;28;20214;-85
2023/03/19 04:38:05;;;;;;;4.95;2.70;;;;;;;;;;5058539;28;20198;-86
2023/03/19 04:40:32;;;;;;;2.55;2.35;;;;;;;;;;5056913;28;20230;-85
2023/03/19 04:43:01;;;;;;;2.63;2.42;;;;;;;;;;5055263;28;20724;-84
2023/03/19 04:45:30;;;;;;;1.70;1.60;;;;;;;;;;5057406;28;20225;-86
2023/03/19 04:47:57;;;;;;;2.45;2.25;;;;;;;;;;5059946;28;20206;-86
2023/03/19 04:50:25;;;;;;;2.40;2.30;;;;;;;;;;5057918;28;20229;-85
2023/03/19 04:52:52;;;;;;;2.45;2.25;;;;;;;;;;5057628;28;20280;-84
2023/03/19 04:55:20;;;;;;;3.47;3.17;;;;;;;;;;5059150;28;20260;-85
2023/03/19 04:57:47;;;;;;;2.58;2.30;;;;;;;;;;5058771;28;20638;-85
2023/03/19 05:00:17;;;;;;;3.25;2.95;;;;;;;;;;5059151;28;20706;-85
2023/03/19 05:02:45;;;;;;;3.05;2.75;;;;;;;;;;5057164;28;20663;-86
2023/03/19 05:05:13;;;;;;;3.83;2.67;;;;;;;;;;5057690;28;20229;-86
2023/03/19 05:07:41;;;;;;;2.55;2.35;;;;;;;;;;5059165;28;20198;-85
2023/03/19 05:10:11;;;;;;;1.95;1.85;;;;;;;;;;5058003;28;20201;-83
2023/03/19 05:12:38;;;;;;;2.60;2.40;;;;;;;;;;5058280;28;20293;-85
2023/03/19 05:15:07;;;;;;;2.90;2.70;;;;;;;;;;5058364;28;20229;-83
2023/03/19 05:17:37;;;;;;;4.45;3.60;;;;;;;;;;5058471;28;20414;-84
2023/03/19 05:20:06;;;;;;;4.70;3.35;;;;;;;;;;5058009;28;20230;-84
2023/03/19 05:22:33;;;;;;;4.25;3.33;;;;;;;;;;5057828;28;20202;-83
2023/03/19 05:25:01;;;;;;;3.75;3.33;;;;;;;;;;5058257;28;20245;-84
2023/03/19 05:27:28;;;;;;;3.42;3.13;;;;;;;;;;5057303;28;20201;-82
2023/03/19 05:29:56;;;;;;;2.90;2.65;;;;;;;;;;5057432;28;20265;-84
2023/03/19 05:32:24;;;;;;;3.42;3.13;;;;;;;;;;5057805;28;20248;-83
2023/03/19 05:34:53;;;;;;;4.18;3.88;;;;;;;;;;5058128;28;20202;-83
2023/03/19 05:37:20;;;;;;;2.78;2.58;;;;;;;;;;5058084;28;20244;-84
2023/03/19 05:39:48;;;;;;;2.88;2.60;;;;;;;;;;5056636;28;20296;-84
2023/03/19 05:42:15;;;;;;;3.47;3.17;;;;;;;;;;5061969;28;20225;-84
2023/03/19 05:44:43;;;;;;;4.13;3.75;;;;;;;;;;5061693;28;20248;-83
2023/03/19 05:47:12;;;;;;;4.40;2.90;;;;;;;;;;5061759;28;20289;-84
2023/03/19 05:49:39;;;;;;;2.63;2.42;;;;;;;;;;5059916;28;20216;-84
2023/03/19 05:52:08;;;;;;;2.65;2.35;;;;;;;;;;5057840;28;20745;-85
2023/03/19 05:54:36;;;;;;;2.95;2.45;;;;;;;;;;5056710;28;20201;-85
2023/03/19 05:57:04;;;;;;;3.30;3.00;;;;;;;;;;5058168;28;20253;-85
2023/03/19 05:59:31;;;;;;;2.50;2.30;;;;;;;;;;5058973;28;20239;-84
2023/03/19 06:01:59;;;;;;;2.75;2.55;;;;;;;;;;5058772;28;20289;-86
2023/03/19 06:04:26;;;;;;;4.13;2.35;;;;;;;;;;5057890;28;20288;-86
2023/03/19 06:06:54;;;;;;;3.50;3.03;;;;;;;;;;5058729;28;20225;-85
2023/03/19 06:09:23;;;;;;;3.03;2.80;;;;;;;;;;5058871;28;20248;-84
2023/03/19 06:11:50;;;;;;;3.78;3.47;;;;;;;;;;5059385;28;20232;-84
2023/03/19 06:14:18;;;;;;;3.50;3.17;;;;;;;;;;5058803;28;20741;-85
2023/03/19 06:16:45;;;;;;;2.92;2.65;;;;;;;;;;5059242;28;20217;-84
2023/03/19 06:19:13;;;;;;;3.55;3.25;;;;;;;;;;5059139;28;20635;-85
2023/03/19 06:21:40;;;;;;;3.05;2.47;;;;;;;;;;5058903;28;20237;-84
2023/03/19 06:24:08;;;;;;;2.38;2.17;;;;;;;;;;5059342;28;20221;-85
2023/03/19 06:26:38;;;;;;;5.80;2.97;;;;;;;;;;5057343;28;20264;-84
2023/03/19 06:29:06;;;;;;;2.60;2.40;;;;;;;;;;5057739;28;20212;-85
2023/03/19 06:31:34;;;;;;;2.53;2.30;;;;;;;;;;5058443;28;20796;-84
2023/03/19 06:34:01;;;;;;;4.43;3.28;;;;;;;;;;5057768;28;20266;-83
2023/03/19 06:36:29;;;;;;;5.43;3.30;;;;;;;;;;5057545;28;20253;-85
2023/03/19 06:38:56;;;;;;;3.58;3.28;;;;;;;;;;5056599;28;20201;-85
2023/03/19 06:41:24;;;;;;;2.72;2.53;;;;;;;;;;5056813;28;20229;-85
2023/03/19 06:43:53;;;;;;;2.40;2.20;;;;;;;;;;5058840;28;20681;-86
2023/03/19 06:46:21;;;;;;;2.90;2.28;;;;;;;;;;5059077;28;20225;-85
2023/03/19 06:48:48;;;;;;;3.00;2.80;;;;;;;;;;5063572;28;20210;-85
2023/03/19 06:51:16;;;;;;;3.53;3.20;;;;;;;;;;5062123;28;20265;-86
2023/03/19 06:53:43;;;;;;;2.72;2.53;;;;;;;;;;5045968;28;20253;-86
2023/03/19 06:56:11;;;;;;;3.15;2.92;;;;;;;;;;5048560;28;20304;-84
2023/03/19 06:58:38;;;;;;;2.90;2.70;;;;;;;;;;5049323;28;20205;-84
2023/03/19 07:01:08;;;;;;;3.00;2.58;;;;;;;;;;5056578;28;20237;-85
2023/03/19 07:03:35;;;;;;;3.28;3.08;;;;;;;;;;5056223;28;20618;-84
2023/03/19 07:06:02;;;;;;;2.72;2.53;;;;;;;;;;5046003;28;20758;-84
2023/03/19 07:08:30;;;;;;;4.82;4.15;;;;;;;;;;5042574;28;20309;-83
2023/03/19 07:11:02;;;;;;;4.57;3.78;;;;;;;;;;5042081;28;20798;-83
2023/03/19 07:13:30;;;;;;;2.85;2.63;;;;;;;;;;5055643;28;20205;-83
2023/03/19 07:15:57;;;;;;;3.58;3.38;;;;;;;;;;5047403;28;20317;-84
2023/03/19 07:18:27;;;;;;;4.63;4.15;;;;;;;;;;5041015;28;20727;-84
2023/03/19 07:20:54;;;;;;;3.22;2.92;;;;;;;;;;5041080;28;20203;-84
2023/03/19 07:23:22;;;;;;;3.97;3.67;;;;;;;;;;5041499;28;20222;-83
2023/03/19 07:25:49;;;;;;;5.05;4.55;;;;;;;;;;5041051;28;20254;-83
2023/03/19 07:28:17;;;;;;;5.50;3.70;;;;;;;;;;5041910;28;20230;-84
2023/03/19 07:30:44;;;;;;;4.82;4.38;;;;;;;;;;5040656;28;20636;-84
2023/03/19 07:33:12;;;;;;;3.22;2.92;;;;;;;;;;5040735;28;20225;-84
2023/03/19 07:35:41;;;;;;;2.45;2.35;;;;;;;;;;5041035;28;20226;-84
2023/03/19 07:38:09;;;;;;;2.90;2.65;;;;;;;;;;5040507;28;20235;-85
2023/03/19 07:40:36;;;;;;;3.08;2.70;;;;;;;;;;5039434;28;20626;-85
2023/03/19 07:43:04;;;;;;;3.30;3.00;;;;;;;;;;5040573;28;20202;-84
2023/03/19 07:45:32;;;;;;;3.95;3.65;;;;;;;;;;5051412;23;20298;-84
2023/03/19 07:48:02;;;;;;;3.58;3.20;;;;;;;;;;5082170;28;20237;-83
2023/03/19 07:50:30;;;;;;;3.38;3.08;;;;;;;;;;5093273;28;20200;-84
2023/03/19 07:52:58;;;;;;;3.88;3.25;;;;;;;;;;5086363;28;20713;-83
2023/03/19 07:55:26;;;;;;;2.65;2.45;;;;;;;;;;5080831;28;20233;-83
2023/03/19 07:57:54;;;;;;;3.80;3.50;;;;;;;;;;5081087;28;20228;-83
2023/03/19 08:00:22;;;;;;;6.10;3.25;;;;;;;;;;5083188;28;20228;-84
2023/03/19 08:02:49;;;;;;;3.15;2.88;;;;;;;;;;5092246;28;20239;-84
2023/03/19 08:05:17;;;;;;;4.20;3.30;;;;;;;;;;5100610;28;20232;-83
2023/03/19 08:07:44;;;;;;;3.10;2.80;;;;;;;;;;5101324;28;20231;-83
2023/03/19 08:10:14;;;;;;;2.97;2.75;;;;;;;;;;5101316;28;20230;-84
2023/03/19 08:12:41;;;;;;;3.85;3.15;;;;;;;;;;5100822;28;20231;-86
2023/03/19 08:15:11;;;;;;;3.95;3.15;;;;;;;;;;5101190;28;20287;-85
2023/03/19 08:17:39;;;;;;;4.07;3.70;;;;;;;;;;5100576;28;20542;-85
2023/03/19 08:20:09;;;;;;;3.03;2.72;;;;;;;;;;5099193;28;20618;-84
2023/03/19 08:22:37;;;;;;;2.58;2.25;;;;;;;;;;5101043;28;20294;-85
2023/03/19 08:25:07;;;;;;;3.03;2.72;;;;;;;;;;5101406;28;20201;-85
2023/03/19 08:27:36;;;;;;;3.38;3.08;;;;;;;;;;5100485;28;20224;-84
2023/03/19 08:30:06;;;;;;;5.60;3.97;;;;;;;;;;5100114;28;20204;-85
2023/03/19 08:32:33;;;;;;;4.78;3.42;;;;;;;;;;5082513;28;20212;-85
2023/03/19 08:35:01;;;;;;;5.65;4.00;;;;;;;;;;5081287;28;20287;-86
2023/03/19 08:37:28;;;;;;;6.40;3.08;;;;;;;;;;5080929;28;20263;-85
2023/03/19 08:39:56;;;;;;;4.28;3.53;;;;;;;;;;5080850;28;20276;-86
2023/03/19 08:42:23;;;;;;;4.93;3.78;;;;;;;;;;5080381;28;20243;-86
2023/03/19 08:44:52;;;;;;;5.18;4.28;;;;;;;;;;5079470;28;20641;-83
2023/03/19 08:47:23;;;;;;;4.20;3.80;;;;;;;;;;5095304;28;20255;-86
2023/03/19 08:49:50;;;;;;;4.57;3.33;;;;;;;;;;5099747;28;20275;-87
2023/03/19 08:52:18;;;;;;;4.43;4.03;;;;;;;;;;5102231;28;20203;-85
2023/03/19 08:54:46;;;;;;;4.28;3.58;;;;;;;;;;5098786;28;20204;-85
2023/03/19 08:57:14;;;;;;;4.45;4.03;;;;;;;;;;5099905;28;20224;-85
2023/03/19 08:59:41;;;;;;;5.05;4.00;;;;;;;;;;5098873;28;20236;-83
2023/03/19 09:02:11;;;;;;;6.30;4.22;;;;;;;;;;5099410;28;20514;-84
2023/03/19 09:04:41;;;;;;;5.20;3.90;;;;;;;;;;5098581;28;20185;-84
2023/03/19 09:07:11;;;;;;;4.30;3.90;;;;;;;;;;5099709;28;20280;-84
2023/03/19 09:09:40;;;;;;;4.03;3.67;;;;;;;;;;5099533;28;20280;-83
2023/03/19 09:12:09;;;;;;;5.30;4.10;;;;;;;;;;5082072;28;20197;-83
2023/03/19 09:14:38;;;;;;;3.95;3.63;;;;;;;;;;5079091;28;20688;-86
2023/03/19 09:17:07;;;;;;;8.10;4.10;;;;;;;;;;5095171;28;20213;-85
2023/03/19 09:19:36;;;;;;;3.85;3.45;;;;;;;;;;5095887;28;20223;-86
2023/03/19 09:22:04;;;;;;;4.57;4.18;;;;;;;;;;5098393;28;20235;-86
2023/03/19 09:24:31;;;;;;;5.35;4.32;;;;;;;;;;5097724;28;20239;-84
2023/03/19 09:26:59;;;;;;;4.70;4.30;;;;;;;;;;5089745;28;20239;-85
2023/03/19 09:29:26;;;;;;;3.90;3.22;;;;;;;;;;5091539;28;20216;-86
2023/03/19 09:31:54;;;;;;;4.63;3.38;;;;;;;;;;5083224;28;20247;-84
2023/03/19 09:34:22;;;;;;;6.03;3.92;;;;;;;;;;5091821;28;20197;-86
2023/03/19 09:36:50;;;;;;;3.58;3.28;;;;;;;;;;5092433;28;20240;-86
2023/03/19 09:39:18;;;;;;;5.28;2.90;;;;;;;;;;5098493;28;20669;-85
2023/03/19 09:41:59;;;;;;;4.90;3.85;;;;;;;;;;5087251;28;20624;-85
2023/03/19 09:44:29;;;;;;;4.20;3.22;;;;;;;;;;5079859;28;20181;-84
2023/03/19 09:47:00;;;;;;;3.53;2.85;;;;;;;;;;5079847;28;20767;-83
2023/03/19 09:49:31;;;;;;;5.93;4.10;;;;;;;;;;5078811;28;20297;-85
2023/03/19 09:52:06;;;;;;;4.00;3.40;;;;;;;;;;5083487;28;20197;-84
2023/03/19 09:54:35;;;;;;;3.08;2.00;;;;;;;;;;5092920;28;20290;-84
2023/03/19 09:57:03;;;;;;;6.60;1.73;;;;;;;;;;5090046;28;20288;-84
2023/03/19 09:59:30;;;;;;;1.70;1.40;;;;;;;;;;5083881;28;20221;-86
2023/03/19 10:02:09;;;;;;;2.15;1.95;;;;;;;;;;5091567;28;20609;-85
2023/03/19 10:04:58;;;;;;;2.50;2.30;;;;;;;;;;5080739;28;20272;-84
2023/03/19 10:07:40;;;;;;;4.53;2.67;;;;;;;;;;5081661;28;20221;-85
2023/03/19 10:10:31;;;;;;;2.10;1.90;;;;;;;;;;5082086;28;20236;-85
2023/03/19 10:13:09;;;;;;;2.47;2.10;;;;;;;;;;5081805;28;20205;-84
2023/03/19 10:15:38;;;;;;;1.80;1.70;;;;;;;;;;5098143;28;20302;-84
2023/03/19 10:18:09;;;;;;;2.38;2.17;;;;;;;;;;5100869;28;20255;-85
2023/03/19 10:20:48;;;;;;;3.10;2.42;;;;;;;;;;5102099;28;20277;-84
2023/03/19 10:23:42;;;;;;;3.45;2.75;;;;;;;;;;5104617;28;20223;-85
2023/03/19 10:26:13;;;;;;;3.28;2.00;;;;;;;;;;5099764;28;20284;-84
2023/03/19 10:28:44;;;;;;;2.53;2.33;;;;;;;;;;5104080;28;20246;-85
2023/03/19 10:31:26;;;;;;;1.60;1.50;;;;;;;;;;5104413;28;20644;-84
2023/03/19 10:34:04;;;;;;;3.70;1.98;;;;;;;;;;5104609;28;20234;-85
2023/03/19 10:36:36;;;;;;;3.40;2.25;;;;;;;;;;5103702;28;20278;-83
2023/03/19 10:39:06;;;;;;;2.78;2.58;;;;;;;;;;5102525;28;20267;-86
2023/03/19 10:41:48;;;;;;;2.63;2.42;;;;;;;;;;5103166;28;20610;-83
2023/03/19 10:44:29;;;;;;;3.95;2.88;;;;;;;;;;5102780;28;20287;-84
2023/03/19 10:46:59;;;;;;;2.17;1.98;;;;;;;;;;5102467;28;20238;-84
2023/03/19 10:49:26;;;;;;;5.93;1.95;;;;;;;;;;5102739;28;20220;-85
2023/03/19 10:51:58;;;;;;;2.17;1.80;;;;;;;;;;5102212;28;20231;-85
2023/03/19 10:54:29;;;;;;;1.38;1.25;;;;;;;;;;5103563;28;20734;-86
2023/03/19 10:56:58;;;;;;;1.45;1.30;;;;;;;;;;5099715;28;20239;-84
2023/03/19 10:59:31;;;;;;;1.45;1.30;;;;;;;;;;5095001;28;20211;-84
2023/03/19 11:02:01;;;;;;;1.50;1.40;;;;;;;;;;5087371;28;20284;-85
2023/03/19 11:04:31;;;;;;;0.90;0.90;;;;;;;;;;5075000;28;20224;-84
2023/03/19 11:07:08;;;;;;;3.72;2.20;;;;;;;;;;5075745;28;20217;-83
2023/03/19 11:09:40;;;;;;;3.03;2.72;;;;;;;;;;5075088;28;20643;-84
2023/03/19 11:12:16;;;;;;;3.83;2.40;;;;;;;;;;5076366;28;20223;-83
2023/03/19 11:14:45;;;;;;;2.40;2.03;;;;;;;;;;5075408;28;20618;-84
2023/03/19 11:17:23;;;;;;;1.88;1.75;;;;;;;;;;5075374;28;20224;-86
2023/03/19 11:19:53;;;;;;;2.28;2.17;;;;;;;;;;5075353;28;20188;-87
2023/03/19 11:22:23;;;;;;;2.55;2.35;;;;;;;;;;5075412;28;20189;-87
2023/03/19 11:24:55;;;;;;;4.95;2.25;;;;;;;;;;5074996;28;20205;-87
2023/03/19 11:27:32;;;;;;;1.73;1.63;;;;;;;;;;5075356;28;20221;-87
2023/03/19 11:30:00;;;;;;;3.70;2.45;;;;;;;;;;5080232;28;20675;-87
2023/03/19 11:33:08;;;;;;;1.85;1.60;;;;;;;;;;5094178;28;20295;-87
2023/03/19 11:35:41;;;;;;;1.58;1.27;;;;;;;;;;5095133;28;20272;-88
2023/03/19 11:38:16;;;;;;;1.27;1.20;;;;;;;;;;5086207;28;20201;-85
2023/03/19 11:40:47;;;;;;;1.42;1.33;;;;;;;;;;5076409;28;20195;-86
2023/03/19 11:43:55;;;;;;;1.20;1.10;;;;;;;;;;5077826;28;20276;-84
2023/03/19 11:46:34;;;;;;;1.05;1.02;;;;;;;;;;5075091;28;20323;-86
2023/03/19 11:49:32;;;;;;;1.10;1.10;;;;;;;;;;5078323;28;20696;-86
2023/03/19 11:52:05;;;;;;;1.63;1.30;;;;;;;;;;5061740;28;20213;-84
2023/03/19 11:54:43;;;;;;;1.17;1.17;;;;;;;;;;5088178;28;20253;-84
2023/03/19 11:57:18;;;;;;;0.70;0.70;;;;;;;;;;5097358;28;20220;-84
2023/03/19 12:00:06;;;;;;;0.70;0.70;;;;;;;;;;5097252;28;20192;-84
2023/03/19 12:02:57;;;;;;;1.33;1.00;;;;;;;;;;5097761;28;20556;-86
2023/03/19 12:05:33;;;;;;;0.90;0.82;;;;;;;;;;5098084;28;20238;-84
2023/03/19 12:08:12;;;;;;;1.38;1.20;;;;;;;;;;5097722;28;20192;-83
2023/03/19 12:10:52;;;;;;;0.93;0.93;;;;;;;;;;5097997;28;20227;-85
2023/03/19 12:13:56;;;;;;;0.85;0.85;;;;;;;;;;5097479;28;20207;-85
2023/03/19 12:16:31;;;;;;;1.83;1.20;;;;;;;;;;5095774;28;20310;-84
2023/03/19 12:19:29;;;;;;;0.90;0.90;;;;;;;;;;5095789;28;20279;-84
2023/03/19 12:22:09;;;;;;;0.73;0.73;;;;;;;;;;5095802;28;20200;-83
2023/03/19 12:24:56;;;;;;;0.88;0.88;;;;;;;;;;5095158;28;20207;-84
2023/03/19 12:27:33;;;;;;;0.90;0.90;;;;;;;;;;5096873;28;20217;-84
2023/03/19 12:30:12;;;;;;;1.02;1.02;;;;;;;;;;5096627;28;20208;-85
2023/03/19 12:32:59;;;;;;;1.05;1.05;;;;;;;;;;5096575;28;20275;-83
2023/03/19 12:35:33;;;;;;;0.80;0.80;;;;;;;;;;5096772;28;20272;-84
2023/03/19 12:38:06;;;;;;;1.17;1.08;;;;;;;;;;5096506;28;20184;-83
2023/03/19 12:40:38;;;;;;;0.70;0.70;;;;;;;;;;5096203;28;20184;-85
2023/03/19 12:43:13;;;;;;;1.13;1.05;;;;;;;;;;5095831;28;20203;-85
2023/03/19 12:45:44;;;;;;;1.50;0.80;;;;;;;;;;5094523;28;20220;-83
2023/03/19 12:48:16;;;;;;;1.10;1.00;;;;;;;;;;5096093;28;20618;-84
2023/03/19 12:50:50;;;;;;;0.90;0.90;;;;;;;;;;5095875;28;20223;-84
2023/03/19 12:53:28;;;;;;;0.70;0.70;;;;;;;;;;5095479;28;20194;-84
2023/03/19 12:56:00;;;;;;;0.85;0.85;;;;;;;;;;5095107;28;20224;-83
2023/03/19 12:58:37;;;;;;;0.82;0.82;;;;;;;;;;5095239;28;20712;-83
2023/03/19 13:01:11;;;;;;;0.80;0.80;;;;;;;;;;5095018;28;20212;-84
2023/03/19 13:03:44;;;;;;;0.70;0.70;;;;;;;;;;5094763;28;20241;-84
2023/03/19 13:06:19;;;;;;;0.77;0.73;;;;;;;;;;5094751;28;20216;-85
2023/03/19 13:08:52;;;;;;;0.80;0.80;;;;;;;;;;5095022;28;20213;-84
2023/03/19 13:11:26;;;;;;;0.68;0.68;;;;;;;;;;5093837;28;20206;-83
2023/03/19 13:13:58;;;;;;;0.82;0.77;;;;;;;;;;5094208;28;20295;-84
2023/03/19 13:16:39;;;;;;;1.02;0.80;;;;;;;;;;5093982;28;20598;-86
2023/03/19 13:19:17;;;;;;;1.38;0.80;;;;;;;;;;5094036;28;20250;-85
2023/03/19 13:21:45;;;;;;;0.75;0.75;;;;;;;;;;5095106;28;20188;-85
2023/03/19 13:24:21;;;;;;;0.90;0.90;;;;;;;;;;5093798;28;20201;-85
2023/03/19 13:26:49;;;;;;;1.10;0.98;;;;;;;;;;5094190;28;20318;-86
2023/03/19 13:29:21;;;;;;;0.52;0.52;;;;;;;;;;5094349;28;20204;-86
2023/03/19 13:31:50;;;;;;;1.00;0.90;;;;;;;;;;5095339;28;20311;-86
2023/03/19 13:34:26;;;;;;;0.77;0.77;;;;;;;;;;5095458;28;20196;-86
2023/03/19 13:36:59;;;;;;;1.27;0.70;;;;;;;;;;5094593;28;20255;-86
2023/03/19 13:39:31;;;;;;;0.80;0.80;;;;;;;;;;5094403;28;20239;-85
2023/03/19 13:42:16;;;;;;;0.80;0.80;;;;;;;;;;5096064;28;20207;-87
2023/03/19 13:44:53;;;;;;;0.60;0.60;;;;;;;;;;5097559;28;20604;-85
2023/03/19 13:47:42;;;;;;;0.82;0.82;;;;;;;;;;5075598;22;20316;-88
2023/03/19 13:50:32;;;;;;;0.60;0.60;;;;;;;;;;5052939;28;20201;-88
2023/03/19 13:53:23;;;;;;;0.40;0.40;;;;;;;;;;5052176;28;20213;-87
2023/03/19 13:55:54;;;;;;;0.52;0.52;;;;;;;;;;5051502;28;20217;-87
2023/03/19 14:01:27;;;;;;;0.85;0.85;;;;;;;;;;5053463;28;20189;-85
2023/03/19 14:03:58;;;;;;;0.70;0.70;;;;;;;;;;5053354;28;20244;-83
2023/03/19 14:06:33;;;;;;;0.93;0.70;;;;;;;;;;5054448;28;20313;-85
2023/03/19 14:09:01;;;;;;;0.47;0.47;;;;;;;;;;5054988;28;20182;-85
2023/03/19 14:11:31;;;;;;;0.60;0.60;;;;;;;;;;5050491;28;20655;-84
2023/03/19 14:14:02;;;;;;;0.90;0.90;;;;;;;;;;5056449;28;20255;-85
2023/03/19 14:16:33;;;;;;;1.33;0.88;;;;;;;;;;5056694;28;20748;-85
2023/03/19 14:19:11;;;;;;;0.80;0.80;;;;;;;;;;5055088;28;20200;-83
2023/03/19 14:21:43;;;;;;;0.50;0.50;;;;;;;;;;5055691;28;20182;-85
2023/03/19 14:24:34;;;;;;;0.88;0.70;;;;;;;;;;5055214;28;20212;-85
2023/03/19 14:27:11;;;;;;;0.68;0.68;;;;;;;;;;5054878;28;20308;-86
2023/03/19 14:29:43;;;;;;;0.80;0.80;;;;;;;;;;5054814;28;20189;-85
2023/03/19 14:32:17;;;;;;;0.90;0.90;;;;;;;;;;5055198;28;20225;-87
2023/03/19 14:34:47;;;;;;;0.68;0.68;;;;;;;;;;5051895;28;20627;-86
2023/03/19 14:37:21;;;;;;;1.02;0.63;;;;;;;;;;5052283;28;20304;-88
2023/03/19 14:39:54;;;;;;;0.82;0.82;;;;;;;;;;5033271;28;20293;-85
2023/03/19 14:42:26;;;;;;;0.60;0.60;;;;;;;;;;5035866;28;20209;-86
2023/03/19 14:45:39;;;;;;;0.80;0.80;;;;;;;;;;5036703;28;20202;-87
2023/03/19 14:48:25;;;;;;;0.73;0.73;;;;;;;;;;5034044;28;20230;-84
2023/03/19 14:51:19;;;;;;;1.00;1.00;;;;;;;;;;5033479;28;20317;-86
2023/03/19 14:53:52;;;;;;;0.65;0.65;;;;;;;;;;5034161;28;20199;-86
2023/03/19 14:56:22;;;;;;;0.95;0.80;;;;;;;;;;5032495;28;20713;-84
2023/03/19 14:58:51;;;;;;;0.57;0.57;;;;;;;;;;5032562;28;20208;-84
2023/03/19 15:01:19;;;;;;;0.63;0.63;;;;;;;;;;5031917;28;20289;-85
2023/03/19 15:03:51;;;;;;;0.50;0.50;;;;;;;;;;5032174;28;20308;-86
2023/03/19 15:06:20;;;;;;;0.60;0.60;;;;;;;;;;5033069;28;20222;-87
2023/03/19 15:08:50;;;;;;;0.68;0.68;;;;;;;;;;5049649;28;20237;-85